Meyers Chuck, Alaska
Current Conditions -  °F | °C
As of 3:53 PM on Wednesday 26 Nov 2014 (Local Time) from PAKW Reporting Station
Clear Clear  
Wind Chill: 32°   Ceiling: Unl
Heat Index: 37°   Visibility: 10mi
Dew Point: 33°   Wind: 6mph
Humidity: 86%   Direction: 40°NE
Pressure: 29.93"   Gusts: NA
Location:  55.74°N, 132.26°W
Report Text: PAKW 270053Z AUTO 04005KT 10SM CLR 03/01 A2993 RMK AO2 SLP134 T00280006 TSNO $
Loading
Personal Weather Stations






























Interactive Weather Map New forecast layout! Learn more

10-Day Weather Forecast

Advertisements
Track Severe Weather on mobile